sensor_id;sensor_type;location;lat;lon;timestamp;P1;durP1;ratioP1;P2;durP2;ratioP2
30301;SDS011;17111;52.130;5.028;2024-01-30T00:01:56;4.97;;;3.83;;
30301;SDS011;17111;52.130;5.028;2024-01-30T00:04:23;5.38;;;3.97;;
30301;SDS011;17111;52.130;5.028;2024-01-30T00:06:50;6.13;;;4.45;;
30301;SDS011;17111;52.130;5.028;2024-01-30T00:09:19;6.35;;;4.18;;
30301;SDS011;17111;52.130;5.028;2024-01-30T00:11:45;4.80;;;4.10;;
30301;SDS011;17111;52.130;5.028;2024-01-30T00:14:12;6.60;;;4.60;;
30301;SDS011;17111;52.130;5.028;2024-01-30T00:16:40;6.45;;;4.35;;
30301;SDS011;17111;52.130;5.028;2024-01-30T00:19:06;5.80;;;4.30;;
30301;SDS011;17111;52.130;5.028;2024-01-30T00:21:34;5.30;;;4.30;;
30301;SDS011;17111;52.130;5.028;2024-01-30T00:24:01;5.03;;;4.18;;
30301;SDS011;17111;52.130;5.028;2024-01-30T00:26:28;4.93;;;3.60;;
30301;SDS011;17111;52.130;5.028;2024-01-30T00:28:54;4.03;;;3.42;;
30301;SDS011;17111;52.130;5.028;2024-01-30T00:31:21;4.88;;;4.05;;
30301;SDS011;17111;52.130;5.028;2024-01-30T00:33:47;4.95;;;3.78;;
30301;SDS011;17111;52.130;5.028;2024-01-30T00:36:14;4.95;;;3.83;;
30301;SDS011;17111;52.130;5.028;2024-01-30T00:38:41;4.80;;;3.65;;
30301;SDS011;17111;52.130;5.028;2024-01-30T00:41:08;4.28;;;3.38;;
30301;SDS011;17111;52.130;5.028;2024-01-30T00:43:35;5.53;;;3.88;;
30301;SDS011;17111;52.130;5.028;2024-01-30T00:46:02;4.20;;;3.78;;
30301;SDS011;17111;52.130;5.028;2024-01-30T00:48:29;5.15;;;4.00;;
30301;SDS011;17111;52.130;5.028;2024-01-30T00:50:56;5.15;;;3.70;;
30301;SDS011;17111;52.130;5.028;2024-01-30T00:53:23;4.88;;;3.95;;
30301;SDS011;17111;52.130;5.028;2024-01-30T00:55:49;7.75;;;4.75;;
30301;SDS011;17111;52.130;5.028;2024-01-30T00:58:16;6.40;;;3.58;;
30301;SDS011;17111;52.130;5.028;2024-01-30T01:00:42;4.70;;;3.80;;
30301;SDS011;17111;52.130;5.028;2024-01-30T01:03:09;5.22;;;3.78;;
30301;SDS011;17111;52.130;5.028;2024-01-30T01:05:36;5.35;;;3.90;;
30301;SDS011;17111;52.130;5.028;2024-01-30T01:08:03;5.45;;;3.97;;
30301;SDS011;17111;52.130;5.028;2024-01-30T01:10:30;5.47;;;3.90;;
30301;SDS011;17111;52.130;5.028;2024-01-30T01:12:56;5.78;;;4.40;;
30301;SDS011;17111;52.130;5.028;2024-01-30T01:15:24;6.22;;;4.05;;
30301;SDS011;17111;52.130;5.028;2024-01-30T01:17:55;5.47;;;3.67;;
30301;SDS011;17111;52.130;5.028;2024-01-30T01:20:21;6.88;;;4.82;;
30301;SDS011;17111;52.130;5.028;2024-01-30T01:22:48;7.32;;;3.95;;
30301;SDS011;17111;52.130;5.028;2024-01-30T01:25:15;5.40;;;3.80;;
30301;SDS011;17111;52.130;5.028;2024-01-30T01:27:42;6.07;;;4.28;;
30301;SDS011;17111;52.130;5.028;2024-01-30T01:30:09;5.95;;;3.88;;
30301;SDS011;17111;52.130;5.028;2024-01-30T01:32:37;6.38;;;4.32;;
30301;SDS011;17111;52.130;5.028;2024-01-30T01:35:04;5.28;;;3.78;;
30301;SDS011;17111;52.130;5.028;2024-01-30T01:37:34;6.53;;;3.88;;
30301;SDS011;17111;52.130;5.028;2024-01-30T01:40:00;5.47;;;3.60;;
30301;SDS011;17111;52.130;5.028;2024-01-30T01:42:27;5.50;;;4.00;;
30301;SDS011;17111;52.130;5.028;2024-01-30T01:44:54;4.78;;;3.60;;
30301;SDS011;17111;52.130;5.028;2024-01-30T01:47:20;5.13;;;3.47;;
30301;SDS011;17111;52.130;5.028;2024-01-30T01:49:47;6.90;;;4.60;;
30301;SDS011;17111;52.130;5.028;2024-01-30T01:52:14;5.15;;;3.95;;
30301;SDS011;17111;52.130;5.028;2024-01-30T01:54:41;4.13;;;3.67;;
30301;SDS011;17111;52.130;5.028;2024-01-30T01:57:08;6.53;;;4.40;;
30301;SDS011;17111;52.130;5.028;2024-01-30T01:59:35;5.97;;;3.78;;
30301;SDS011;17111;52.130;5.028;2024-01-30T02:02:02;4.10;;;3.58;;
30301;SDS011;17111;52.130;5.028;2024-01-30T02:04:31;5.00;;;3.97;;
30301;SDS011;17111;52.130;5.028;2024-01-30T02:06:58;5.93;;;3.63;;
30301;SDS011;17111;52.130;5.028;2024-01-30T02:09:25;6.40;;;3.70;;
30301;SDS011;17111;52.130;5.028;2024-01-30T02:11:51;4.65;;;3.50;;
30301;SDS011;17111;52.130;5.028;2024-01-30T02:14:18;7.65;;;4.00;;
30301;SDS011;17111;52.130;5.028;2024-01-30T02:16:45;5.25;;;4.53;;
30301;SDS011;17111;52.130;5.028;2024-01-30T02:19:11;5.38;;;4.03;;
30301;SDS011;17111;52.130;5.028;2024-01-30T02:21:38;4.80;;;3.40;;
30301;SDS011;17111;52.130;5.028;2024-01-30T02:24:05;5.90;;;3.70;;
30301;SDS011;17111;52.130;5.028;2024-01-30T02:26:32;5.22;;;3.63;;
30301;SDS011;17111;52.130;5.028;2024-01-30T02:28:58;5.50;;;3.60;;
30301;SDS011;17111;52.130;5.028;2024-01-30T02:31:25;4.97;;;3.60;;
30301;SDS011;17111;52.130;5.028;2024-01-30T02:33:52;5.13;;;3.88;;
30301;SDS011;17111;52.130;5.028;2024-01-30T02:36:19;7.25;;;4.00;;
30301;SDS011;17111;52.130;5.028;2024-01-30T02:38:45;5.18;;;3.70;;
30301;SDS011;17111;52.130;5.028;2024-01-30T02:41:12;4.53;;;3.70;;
30301;SDS011;17111;52.130;5.028;2024-01-30T02:43:39;5.82;;;3.70;;
30301;SDS011;17111;52.130;5.028;2024-01-30T02:46:06;4.68;;;3.15;;
30301;SDS011;17111;52.130;5.028;2024-01-30T02:48:33;5.25;;;3.80;;
30301;SDS011;17111;52.130;5.028;2024-01-30T02:50:59;4.88;;;3.50;;
30301;SDS011;17111;52.130;5.028;2024-01-30T02:53:26;5.50;;;3.60;;
30301;SDS011;17111;52.130;5.028;2024-01-30T02:55:53;5.07;;;3.78;;
30301;SDS011;17111;52.130;5.028;2024-01-30T02:58:19;5.15;;;3.70;;
30301;SDS011;17111;52.130;5.028;2024-01-30T03:00:46;5.72;;;3.92;;
30301;SDS011;17111;52.130;5.028;2024-01-30T03:03:13;5.97;;;3.85;;
30301;SDS011;17111;52.130;5.028;2024-01-30T03:05:40;4.60;;;3.78;;
30301;SDS011;17111;52.130;5.028;2024-01-30T03:08:06;6.00;;;3.83;;
30301;SDS011;17111;52.130;5.028;2024-01-30T03:10:33;5.45;;;3.80;;
30301;SDS011;17111;52.130;5.028;2024-01-30T03:13:00;5.18;;;3.75;;
30301;SDS011;17111;52.130;5.028;2024-01-30T03:15:26;6.53;;;3.83;;
30301;SDS011;17111;52.130;5.028;2024-01-30T03:17:53;5.05;;;3.83;;
30301;SDS011;17111;52.130;5.028;2024-01-30T03:20:20;4.55;;;3.55;;
30301;SDS011;17111;52.130;5.028;2024-01-30T03:22:47;4.18;;;3.60;;
30301;SDS011;17111;52.130;5.028;2024-01-30T03:25:13;4.82;;;3.85;;
30301;SDS011;17111;52.130;5.028;2024-01-30T03:27:40;4.57;;;3.63;;
30301;SDS011;17111;52.130;5.028;2024-01-30T03:30:07;5.10;;;3.50;;
30301;SDS011;17111;52.130;5.028;2024-01-30T03:32:34;5.15;;;3.40;;
30301;SDS011;17111;52.130;5.028;2024-01-30T03:35:00;6.10;;;3.75;;
30301;SDS011;17111;52.130;5.028;2024-01-30T03:37:27;5.88;;;3.58;;
30301;SDS011;17111;52.130;5.028;2024-01-30T03:39:54;4.80;;;3.53;;
30301;SDS011;17111;52.130;5.028;2024-01-30T03:42:21;4.85;;;3.50;;
30301;SDS011;17111;52.130;5.028;2024-01-30T03:44:48;5.43;;;3.83;;
30301;SDS011;17111;52.130;5.028;2024-01-30T03:47:18;5.95;;;4.25;;
30301;SDS011;17111;52.130;5.028;2024-01-30T03:49:44;5.30;;;3.70;;
30301;SDS011;17111;52.130;5.028;2024-01-30T03:52:11;4.53;;;3.45;;
30301;SDS011;17111;52.130;5.028;2024-01-30T03:54:38;6.70;;;3.90;;
30301;SDS011;17111;52.130;5.028;2024-01-30T03:57:05;4.88;;;3.63;;
30301;SDS011;17111;52.130;5.028;2024-01-30T03:59:32;5.00;;;3.78;;
30301;SDS011;17111;52.130;5.028;2024-01-30T04:01:59;4.65;;;3.63;;
30301;SDS011;17111;52.130;5.028;2024-01-30T04:04:26;6.53;;;3.60;;
30301;SDS011;17111;52.130;5.028;2024-01-30T04:06:53;5.18;;;3.63;;
30301;SDS011;17111;52.130;5.028;2024-01-30T04:09:20;4.18;;;3.28;;
30301;SDS011;17111;52.130;5.028;2024-01-30T04:11:46;7.80;;;3.92;;
30301;SDS011;17111;52.130;5.028;2024-01-30T04:14:13;5.03;;;3.72;;
30301;SDS011;17111;52.130;5.028;2024-01-30T04:16:40;6.72;;;4.10;;
30301;SDS011;17111;52.130;5.028;2024-01-30T04:19:06;4.70;;;3.90;;
30301;SDS011;17111;52.130;5.028;2024-01-30T04:21:33;5.85;;;3.53;;
30301;SDS011;17111;52.130;5.028;2024-01-30T04:24:00;4.60;;;3.55;;
30301;SDS011;17111;52.130;5.028;2024-01-30T04:26:26;5.75;;;3.42;;
30301;SDS011;17111;52.130;5.028;2024-01-30T04:28:53;4.97;;;3.45;;
30301;SDS011;17111;52.130;5.028;2024-01-30T04:31:20;4.60;;;3.60;;
30301;SDS011;17111;52.130;5.028;2024-01-30T04:33:47;5.57;;;3.40;;
30301;SDS011;17111;52.130;5.028;2024-01-30T04:36:13;6.53;;;3.70;;
30301;SDS011;17111;52.130;5.028;2024-01-30T04:38:40;5.65;;;3.80;;
30301;SDS011;17111;52.130;5.028;2024-01-30T04:41:07;5.13;;;3.72;;
30301;SDS011;17111;52.130;5.028;2024-01-30T04:43:33;4.68;;;3.60;;
30301;SDS011;17111;52.130;5.028;2024-01-30T04:46:00;5.10;;;3.78;;
30301;SDS011;17111;52.130;5.028;2024-01-30T04:48:27;6.03;;;3.63;;
30301;SDS011;17111;52.130;5.028;2024-01-30T04:50:54;3.40;;;3.10;;
30301;SDS011;17111;52.130;5.028;2024-01-30T04:53:22;4.90;;;3.65;;
30301;SDS011;17111;52.130;5.028;2024-01-30T04:55:49;3.85;;;3.20;;
30301;SDS011;17111;52.130;5.028;2024-01-30T04:58:15;4.68;;;3.50;;
30301;SDS011;17111;52.130;5.028;2024-01-30T05:00:42;4.97;;;3.70;;
30301;SDS011;17111;52.130;5.028;2024-01-30T05:03:09;4.25;;;3.65;;
30301;SDS011;17111;52.130;5.028;2024-01-30T05:05:36;5.07;;;3.92;;
30301;SDS011;17111;52.130;5.028;2024-01-30T05:08:02;4.90;;;3.60;;
30301;SDS011;17111;52.130;5.028;2024-01-30T05:10:29;6.20;;;4.03;;
30301;SDS011;17111;52.130;5.028;2024-01-30T05:12:56;5.18;;;3.33;;
30301;SDS011;17111;52.130;5.028;2024-01-30T05:15:22;4.60;;;3.55;;
30301;SDS011;17111;52.130;5.028;2024-01-30T05:17:49;6.70;;;3.90;;
30301;SDS011;17111;52.130;5.028;2024-01-30T05:20:16;3.95;;;3.25;;
30301;SDS011;17111;52.130;5.028;2024-01-30T05:22:43;6.18;;;3.58;;
30301;SDS011;17111;52.130;5.028;2024-01-30T05:25:14;4.88;;;3.60;;
30301;SDS011;17111;52.130;5.028;2024-01-30T05:27:41;5.68;;;3.58;;
30301;SDS011;17111;52.130;5.028;2024-01-30T05:30:08;5.38;;;3.80;;
30301;SDS011;17111;52.130;5.028;2024-01-30T05:32:35;5.88;;;3.70;;
30301;SDS011;17111;52.130;5.028;2024-01-30T05:35:02;4.47;;;3.70;;
30301;SDS011;17111;52.130;5.028;2024-01-30T05:37:29;5.10;;;3.50;;
30301;SDS011;17111;52.130;5.028;2024-01-30T05:39:55;5.63;;;4.03;;
30301;SDS011;17111;52.130;5.028;2024-01-30T05:42:22;4.75;;;3.65;;
30301;SDS011;17111;52.130;5.028;2024-01-30T05:44:49;6.80;;;3.85;;
30301;SDS011;17111;52.130;5.028;2024-01-30T05:47:16;4.68;;;3.58;;
30301;SDS011;17111;52.130;5.028;2024-01-30T05:49:42;5.15;;;3.67;;
30301;SDS011;17111;52.130;5.028;2024-01-30T05:52:09;5.90;;;3.95;;
30301;SDS011;17111;52.130;5.028;2024-01-30T05:54:36;4.35;;;2.95;;
30301;SDS011;17111;52.130;5.028;2024-01-30T05:57:03;4.75;;;3.70;;
30301;SDS011;17111;52.130;5.028;2024-01-30T05:59:29;4.47;;;3.38;;
30301;SDS011;17111;52.130;5.028;2024-01-30T06:01:56;4.22;;;3.28;;
30301;SDS011;17111;52.130;5.028;2024-01-30T06:04:23;4.05;;;3.58;;
30301;SDS011;17111;52.130;5.028;2024-01-30T06:06:50;4.95;;;3.70;;
30301;SDS011;17111;52.130;5.028;2024-01-30T06:09:17;5.35;;;3.53;;
30301;SDS011;17111;52.130;5.028;2024-01-30T06:11:43;4.55;;;3.50;;
30301;SDS011;17111;52.130;5.028;2024-01-30T06:14:10;6.00;;;3.80;;
30301;SDS011;17111;52.130;5.028;2024-01-30T06:16:36;4.10;;;3.42;;
30301;SDS011;17111;52.130;5.028;2024-01-30T06:19:03;5.25;;;3.55;;
30301;SDS011;17111;52.130;5.028;2024-01-30T06:21:30;4.53;;;3.35;;
30301;SDS011;17111;52.130;5.028;2024-01-30T06:23:58;4.55;;;3.45;;
30301;SDS011;17111;52.130;5.028;2024-01-30T06:26:24;3.42;;;2.83;;
30301;SDS011;17111;52.130;5.028;2024-01-30T06:28:51;5.35;;;3.28;;
30301;SDS011;17111;52.130;5.028;2024-01-30T06:31:17;4.50;;;3.28;;
30301;SDS011;17111;52.130;5.028;2024-01-30T06:33:46;3.85;;;2.90;;
30301;SDS011;17111;52.130;5.028;2024-01-30T06:36:13;4.93;;;3.72;;
30301;SDS011;17111;52.130;5.028;2024-01-30T06:38:40;6.15;;;3.53;;
30301;SDS011;17111;52.130;5.028;2024-01-30T06:41:07;4.30;;;2.90;;
30301;SDS011;17111;52.130;5.028;2024-01-30T06:43:34;3.35;;;2.67;;
30301;SDS011;17111;52.130;5.028;2024-01-30T06:46:01;5.25;;;3.25;;
30301;SDS011;17111;52.130;5.028;2024-01-30T06:48:27;5.95;;;2.85;;
30301;SDS011;17111;52.130;5.028;2024-01-30T06:50:54;5.22;;;3.38;;
30301;SDS011;17111;52.130;5.028;2024-01-30T06:53:21;4.63;;;2.85;;
30301;SDS011;17111;52.130;5.028;2024-01-30T06:55:47;3.70;;;3.13;;
30301;SDS011;17111;52.130;5.028;2024-01-30T06:58:14;3.88;;;3.25;;
30301;SDS011;17111;52.130;5.028;2024-01-30T07:00:41;4.07;;;3.10;;
30301;SDS011;17111;52.130;5.028;2024-01-30T07:03:08;5.07;;;3.40;;
30301;SDS011;17111;52.130;5.028;2024-01-30T07:05:34;6.22;;;3.30;;
30301;SDS011;17111;52.130;5.028;2024-01-30T07:08:01;4.97;;;3.30;;
30301;SDS011;17111;52.130;5.028;2024-01-30T07:10:28;4.63;;;3.40;;
30301;SDS011;17111;52.130;5.028;2024-01-30T07:12:54;7.40;;;3.65;;
30301;SDS011;17111;52.130;5.028;2024-01-30T07:15:21;3.97;;;2.85;;
30301;SDS011;17111;52.130;5.028;2024-01-30T07:17:48;7.05;;;3.63;;
30301;SDS011;17111;52.130;5.028;2024-01-30T07:20:14;5.40;;;3.10;;
30301;SDS011;17111;52.130;5.028;2024-01-30T07:22:43;4.43;;;3.20;;
30301;SDS011;17111;52.130;5.028;2024-01-30T07:25:10;4.93;;;3.30;;
30301;SDS011;17111;52.130;5.028;2024-01-30T07:27:37;3.92;;;3.03;;
30301;SDS011;17111;52.130;5.028;2024-01-30T07:30:04;4.88;;;3.50;;
30301;SDS011;17111;52.130;5.028;2024-01-30T07:32:31;4.45;;;3.40;;
30301;SDS011;17111;52.130;5.028;2024-01-30T07:34:58;4.20;;;3.28;;
30301;SDS011;17111;52.130;5.028;2024-01-30T07:37:34;5.70;;;3.50;;
30301;SDS011;17111;52.130;5.028;2024-01-30T07:40:01;6.20;;;3.63;;
30301;SDS011;17111;52.130;5.028;2024-01-30T07:42:29;4.82;;;3.30;;
30301;SDS011;17111;52.130;5.028;2024-01-30T07:44:56;3.72;;;2.95;;
30301;SDS011;17111;52.130;5.028;2024-01-30T07:47:22;4.40;;;3.60;;
30301;SDS011;17111;52.130;5.028;2024-01-30T07:49:49;7.38;;;3.10;;
30301;SDS011;17111;52.130;5.028;2024-01-30T07:52:16;4.40;;;3.22;;
30301;SDS011;17111;52.130;5.028;2024-01-30T07:54:49;5.80;;;3.28;;
30301;SDS011;17111;52.130;5.028;2024-01-30T07:57:16;4.45;;;3.20;;
30301;SDS011;17111;52.130;5.028;2024-01-30T07:59:44;5.80;;;3.80;;
30301;SDS011;17111;52.130;5.028;2024-01-30T08:02:12;5.15;;;3.53;;
30301;SDS011;17111;52.130;5.028;2024-01-30T08:04:39;4.75;;;3.47;;
30301;SDS011;17111;52.130;5.028;2024-01-30T08:07:06;4.85;;;3.00;;
30301;SDS011;17111;52.130;5.028;2024-01-30T08:09:33;3.35;;;2.63;;
30301;SDS011;17111;52.130;5.028;2024-01-30T08:11:59;4.38;;;3.58;;
30301;SDS011;17111;52.130;5.028;2024-01-30T08:14:26;6.22;;;3.33;;
30301;SDS011;17111;52.130;5.028;2024-01-30T08:16:53;4.47;;;2.97;;
30301;SDS011;17111;52.130;5.028;2024-01-30T08:19:19;4.68;;;3.50;;
30301;SDS011;17111;52.130;5.028;2024-01-30T08:21:46;6.70;;;3.58;;
30301;SDS011;17111;52.130;5.028;2024-01-30T08:24:13;5.75;;;3.35;;
30301;SDS011;17111;52.130;5.028;2024-01-30T08:26:39;4.72;;;3.45;;
30301;SDS011;17111;52.130;5.028;2024-01-30T08:29:06;5.50;;;3.20;;
30301;SDS011;17111;52.130;5.028;2024-01-30T08:31:33;4.07;;;3.47;;
30301;SDS011;17111;52.130;5.028;2024-01-30T08:34:00;5.22;;;3.13;;
30301;SDS011;17111;52.130;5.028;2024-01-30T08:36:27;4.65;;;3.13;;
30301;SDS011;17111;52.130;5.028;2024-01-30T08:38:54;6.65;;;3.35;;
30301;SDS011;17111;52.130;5.028;2024-01-30T08:41:26;5.20;;;3.47;;
30301;SDS011;17111;52.130;5.028;2024-01-30T08:43:53;4.22;;;3.53;;
30301;SDS011;17111;52.130;5.028;2024-01-30T08:46:20;4.00;;;3.00;;
30301;SDS011;17111;52.130;5.028;2024-01-30T08:48:47;3.80;;;3.25;;
30301;SDS011;17111;52.130;5.028;2024-01-30T08:51:14;5.28;;;3.63;;
30301;SDS011;17111;52.130;5.028;2024-01-30T08:53:42;4.88;;;3.63;;
30301;SDS011;17111;52.130;5.028;2024-01-30T08:56:09;5.68;;;3.50;;
30301;SDS011;17111;52.130;5.028;2024-01-30T08:58:36;7.43;;;3.65;;
30301;SDS011;17111;52.130;5.028;2024-01-30T09:01:02;5.22;;;3.75;;
30301;SDS011;17111;52.130;5.028;2024-01-30T09:03:31;6.47;;;3.88;;
30301;SDS011;17111;52.130;5.028;2024-01-30T09:05:58;5.50;;;3.58;;
30301;SDS011;17111;52.130;5.028;2024-01-30T09:08:25;6.72;;;3.65;;
30301;SDS011;17111;52.130;5.028;2024-01-30T09:10:51;4.57;;;3.70;;
30301;SDS011;17111;52.130;5.028;2024-01-30T09:13:18;4.85;;;3.53;;
30301;SDS011;17111;52.130;5.028;2024-01-30T09:15:45;5.75;;;3.03;;
30301;SDS011;17111;52.130;5.028;2024-01-30T09:18:12;6.28;;;3.65;;
30301;SDS011;17111;52.130;5.028;2024-01-30T09:20:39;5.90;;;3.30;;
30301;SDS011;17111;52.130;5.028;2024-01-30T09:23:05;6.40;;;3.40;;
30301;SDS011;17111;52.130;5.028;2024-01-30T09:25:32;6.15;;;3.70;;
30301;SDS011;17111;52.130;5.028;2024-01-30T09:27:59;4.50;;;3.15;;
30301;SDS011;17111;52.130;5.028;2024-01-30T09:30:25;9.70;;;3.38;;
30301;SDS011;17111;52.130;5.028;2024-01-30T09:32:52;4.78;;;3.20;;
30301;SDS011;17111;52.130;5.028;2024-01-30T09:35:19;5.70;;;3.38;;
30301;SDS011;17111;52.130;5.028;2024-01-30T09:37:45;5.20;;;3.20;;
30301;SDS011;17111;52.130;5.028;2024-01-30T09:40:12;4.72;;;3.15;;
30301;SDS011;17111;52.130;5.028;2024-01-30T09:42:39;4.78;;;3.05;;
30301;SDS011;17111;52.130;5.028;2024-01-30T09:45:09;4.68;;;3.28;;
30301;SDS011;17111;52.130;5.028;2024-01-30T09:47:41;6.38;;;3.35;;
30301;SDS011;17111;52.130;5.028;2024-01-30T09:50:12;5.75;;;3.08;;
30301;SDS011;17111;52.130;5.028;2024-01-30T09:52:41;5.30;;;3.10;;
30301;SDS011;17111;52.130;5.028;2024-01-30T09:55:11;4.85;;;3.15;;
30301;SDS011;17111;52.130;5.028;2024-01-30T09:57:38;6.15;;;3.00;;
30301;SDS011;17111;52.130;5.028;2024-01-30T10:00:05;4.65;;;3.03;;
30301;SDS011;17111;52.130;5.028;2024-01-30T10:02:35;4.85;;;2.90;;
30301;SDS011;17111;52.130;5.028;2024-01-30T10:05:02;5.38;;;3.03;;
30301;SDS011;17111;52.130;5.028;2024-01-30T10:07:29;4.90;;;2.92;;
30301;SDS011;17111;52.130;5.028;2024-01-30T10:09:57;4.57;;;2.67;;
30301;SDS011;17111;52.130;5.028;2024-01-30T10:12:27;4.70;;;3.45;;
30301;SDS011;17111;52.130;5.028;2024-01-30T10:14:56;3.35;;;2.88;;
30301;SDS011;17111;52.130;5.028;2024-01-30T10:17:24;4.13;;;2.97;;
30301;SDS011;17111;52.130;5.028;2024-01-30T10:19:59;4.30;;;2.65;;
30301;SDS011;17111;52.130;5.028;2024-01-30T10:22:27;4.28;;;3.25;;
30301;SDS011;17111;52.130;5.028;2024-01-30T10:24:54;6.43;;;2.80;;
30301;SDS011;17111;52.130;5.028;2024-01-30T10:27:27;4.40;;;3.13;;
30301;SDS011;17111;52.130;5.028;2024-01-30T10:29:55;3.40;;;2.65;;
30301;SDS011;17111;52.130;5.028;2024-01-30T10:32:23;3.75;;;2.90;;
30301;SDS011;17111;52.130;5.028;2024-01-30T10:34:49;4.35;;;2.45;;
30301;SDS011;17111;52.130;5.028;2024-01-30T10:37:16;5.13;;;2.97;;
30301;SDS011;17111;52.130;5.028;2024-01-30T10:39:45;3.92;;;2.67;;
30301;SDS011;17111;52.130;5.028;2024-01-30T10:42:13;3.08;;;2.50;;
30301;SDS011;17111;52.130;5.028;2024-01-30T10:47:26;3.13;;;2.50;;
30301;SDS011;17111;52.130;5.028;2024-01-30T10:49:55;4.63;;;2.55;;
30301;SDS011;17111;52.130;5.028;2024-01-30T10:52:23;4.40;;;3.00;;
30301;SDS011;17111;52.130;5.028;2024-01-30T10:54:54;3.80;;;2.58;;
30301;SDS011;17111;52.130;5.028;2024-01-30T10:57:22;4.55;;;2.88;;
30301;SDS011;17111;52.130;5.028;2024-01-30T10:59:51;3.88;;;2.58;;
30301;SDS011;17111;52.130;5.028;2024-01-30T11:02:23;4.22;;;2.70;;
30301;SDS011;17111;52.130;5.028;2024-01-30T11:04:54;4.53;;;2.15;;
30301;SDS011;17111;52.130;5.028;2024-01-30T11:07:24;3.25;;;2.63;;
30301;SDS011;17111;52.130;5.028;2024-01-30T11:12:33;3.42;;;2.83;;
30301;SDS011;17111;52.130;5.028;2024-01-30T11:15:07;4.32;;;2.20;;
30301;SDS011;17111;52.130;5.028;2024-01-30T11:20:18;4.38;;;2.40;;
30301;SDS011;17111;52.130;5.028;2024-01-30T11:22:52;3.22;;;2.58;;
30301;SDS011;17111;52.130;5.028;2024-01-30T11:25:22;4.10;;;2.35;;
30301;SDS011;17111;52.130;5.028;2024-01-30T11:27:51;4.13;;;2.35;;
30301;SDS011;17111;52.130;5.028;2024-01-30T11:33:08;3.42;;;2.60;;
30301;SDS011;17111;52.130;5.028;2024-01-30T11:35:36;3.07;;;2.60;;
30301;SDS011;17111;52.130;5.028;2024-01-30T11:38:13;3.95;;;2.30;;
30301;SDS011;17111;52.130;5.028;2024-01-30T11:40:41;3.97;;;2.45;;
30301;SDS011;17111;52.130;5.028;2024-01-30T11:43:08;3.30;;;2.20;;
30301;SDS011;17111;52.130;5.028;2024-01-30T11:45:36;3.67;;;2.40;;
30301;SDS011;17111;52.130;5.028;2024-01-30T11:48:03;4.07;;;2.13;;
30301;SDS011;17111;52.130;5.028;2024-01-30T11:50:31;2.58;;;1.90;;
30301;SDS011;17111;52.130;5.028;2024-01-30T11:52:59;2.75;;;1.90;;
30301;SDS011;17111;52.130;5.028;2024-01-30T11:55:29;3.22;;;2.13;;
30301;SDS011;17111;52.130;5.028;2024-01-30T11:58:00;4.68;;;2.25;;
30301;SDS011;17111;52.130;5.028;2024-01-30T12:00:28;5.38;;;2.20;;
30301;SDS011;17111;52.130;5.028;2024-01-30T12:02:57;3.33;;;2.10;;
30301;SDS011;17111;52.130;5.028;2024-01-30T12:05:25;2.78;;;2.00;;
30301;SDS011;17111;52.130;5.028;2024-01-30T12:07:52;3.55;;;2.08;;
30301;SDS011;17111;52.130;5.028;2024-01-30T12:10:20;2.08;;;1.77;;
30301;SDS011;17111;52.130;5.028;2024-01-30T12:12:50;3.65;;;2.20;;
30301;SDS011;17111;52.130;5.028;2024-01-30T12:15:18;3.15;;;1.92;;
30301;SDS011;17111;52.130;5.028;2024-01-30T12:17:45;4.60;;;2.40;;
30301;SDS011;17111;52.130;5.028;2024-01-30T12:20:12;3.15;;;1.60;;
30301;SDS011;17111;52.130;5.028;2024-01-30T12:22:41;2.72;;;1.98;;
30301;SDS011;17111;52.130;5.028;2024-01-30T12:25:11;4.95;;;2.10;;
30301;SDS011;17111;52.130;5.028;2024-01-30T12:27:42;3.00;;;2.00;;
30301;SDS011;17111;52.130;5.028;2024-01-30T12:30:10;4.40;;;1.85;;
30301;SDS011;17111;52.130;5.028;2024-01-30T12:32:41;3.45;;;1.80;;
30301;SDS011;17111;52.130;5.028;2024-01-30T12:35:12;2.45;;;1.60;;
30301;SDS011;17111;52.130;5.028;2024-01-30T12:37:40;4.05;;;1.77;;
30301;SDS011;17111;52.130;5.028;2024-01-30T12:40:08;3.35;;;1.60;;
30301;SDS011;17111;52.130;5.028;2024-01-30T12:42:36;3.22;;;1.90;;
30301;SDS011;17111;52.130;5.028;2024-01-30T12:45:03;2.00;;;1.45;;
30301;SDS011;17111;52.130;5.028;2024-01-30T12:47:30;4.00;;;2.00;;
30301;SDS011;17111;52.130;5.028;2024-01-30T12:49:58;3.10;;;1.90;;
30301;SDS011;17111;52.130;5.028;2024-01-30T12:52:25;2.30;;;1.70;;
30301;SDS011;17111;52.130;5.028;2024-01-30T12:54:52;2.58;;;1.60;;
30301;SDS011;17111;52.130;5.028;2024-01-30T12:57:19;3.60;;;1.80;;
30301;SDS011;17111;52.130;5.028;2024-01-30T12:59:46;2.75;;;1.73;;
30301;SDS011;17111;52.130;5.028;2024-01-30T13:02:13;3.20;;;1.55;;
30301;SDS011;17111;52.130;5.028;2024-01-30T13:04:41;3.15;;;1.77;;
30301;SDS011;17111;52.130;5.028;2024-01-30T13:07:09;3.20;;;1.70;;
30301;SDS011;17111;52.130;5.028;2024-01-30T13:09:36;5.85;;;1.50;;
30301;SDS011;17111;52.130;5.028;2024-01-30T13:12:04;3.88;;;1.70;;
30301;SDS011;17111;52.130;5.028;2024-01-30T13:14:31;2.13;;;1.65;;
30301;SDS011;17111;52.130;5.028;2024-01-30T13:16:57;2.17;;;1.33;;
30301;SDS011;17111;52.130;5.028;2024-01-30T13:19:24;4.93;;;1.63;;
30301;SDS011;17111;52.130;5.028;2024-01-30T13:21:51;3.85;;;1.55;;
30301;SDS011;17111;52.130;5.028;2024-01-30T13:24:17;2.67;;;1.45;;
30301;SDS011;17111;52.130;5.028;2024-01-30T13:26:47;2.20;;;1.30;;
30301;SDS011;17111;52.130;5.028;2024-01-30T13:29:15;3.08;;;1.63;;
30301;SDS011;17111;52.130;5.028;2024-01-30T13:31:42;2.17;;;1.30;;
30301;SDS011;17111;52.130;5.028;2024-01-30T13:34:10;1.65;;;1.30;;
30301;SDS011;17111;52.130;5.028;2024-01-30T13:36:38;2.08;;;1.38;;
30301;SDS011;17111;52.130;5.028;2024-01-30T13:39:04;3.65;;;1.80;;
30301;SDS011;17111;52.130;5.028;2024-01-30T13:41:35;2.30;;;1.20;;
30301;SDS011;17111;52.130;5.028;2024-01-30T13:44:02;2.08;;;1.40;;
30301;SDS011;17111;52.130;5.028;2024-01-30T13:46:30;3.67;;;1.67;;
30301;SDS011;17111;52.130;5.028;2024-01-30T13:48:57;1.65;;;1.35;;
30301;SDS011;17111;52.130;5.028;2024-01-30T13:51:24;1.80;;;1.13;;
30301;SDS011;17111;52.130;5.028;2024-01-30T13:53:50;2.50;;;1.30;;
30301;SDS011;17111;52.130;5.028;2024-01-30T13:56:17;2.38;;;1.38;;
30301;SDS011;17111;52.130;5.028;2024-01-30T13:58:44;2.47;;;1.55;;
30301;SDS011;17111;52.130;5.028;2024-01-30T14:01:11;2.45;;;1.30;;
30301;SDS011;17111;52.130;5.028;2024-01-30T14:03:38;1.63;;;1.10;;
30301;SDS011;17111;52.130;5.028;2024-01-30T14:06:04;1.17;;;1.08;;
30301;SDS011;17111;52.130;5.028;2024-01-30T14:08:32;2.95;;;1.52;;
30301;SDS011;17111;52.130;5.028;2024-01-30T14:10:58;3.60;;;1.42;;
30301;SDS011;17111;52.130;5.028;2024-01-30T14:13:25;2.70;;;1.40;;
30301;SDS011;17111;52.130;5.028;2024-01-30T14:15:52;2.13;;;1.33;;
30301;SDS011;17111;52.130;5.028;2024-01-30T14:18:19;1.35;;;0.93;;
30301;SDS011;17111;52.130;5.028;2024-01-30T14:20:46;1.20;;;1.00;;
30301;SDS011;17111;52.130;5.028;2024-01-30T14:23:13;3.80;;;1.20;;
30301;SDS011;17111;52.130;5.028;2024-01-30T14:25:40;2.83;;;1.25;;
30301;SDS011;17111;52.130;5.028;2024-01-30T14:28:06;2.75;;;1.20;;
30301;SDS011;17111;52.130;5.028;2024-01-30T14:30:33;1.08;;;0.90;;
30301;SDS011;17111;52.130;5.028;2024-01-30T14:33:00;1.48;;;1.10;;
30301;SDS011;17111;52.130;5.028;2024-01-30T14:35:27;1.83;;;1.15;;
30301;SDS011;17111;52.130;5.028;2024-01-30T14:37:53;1.60;;;1.00;;
30301;SDS011;17111;52.130;5.028;2024-01-30T14:40:20;1.95;;;1.00;;
30301;SDS011;17111;52.130;5.028;2024-01-30T14:42:47;2.53;;;1.33;;
30301;SDS011;17111;52.130;5.028;2024-01-30T14:45:14;2.13;;;1.20;;
30301;SDS011;17111;52.130;5.028;2024-01-30T14:47:42;2.20;;;1.10;;
30301;SDS011;17111;52.130;5.028;2024-01-30T14:50:09;2.60;;;1.17;;
30301;SDS011;17111;52.130;5.028;2024-01-30T14:52:36;2.03;;;1.17;;
30301;SDS011;17111;52.130;5.028;2024-01-30T14:55:04;1.95;;;1.20;;
30301;SDS011;17111;52.130;5.028;2024-01-30T14:57:31;1.45;;;1.00;;
30301;SDS011;17111;52.130;5.028;2024-01-30T14:59:58;3.00;;;1.35;;